Texhoma, OK (73949)

1:54 PM CDT on August 25, 2016 (GMT -0500)
Grass Land | | Change Station

Elev 3323 ft 36.55 °N, 101.66 °W | Updated 13 minutes ago

Overcast
Overcast
76.3 °F
Feels Like 78 °F
N
2.7
Wind Variable Wind from East

Today
High -- | Low -- °F
--% Chance of Precip.
Yesterday
High -- | Low -- °F
Precip. -- in
Pressure 30.19 in
Visibility 10.0 miles
Clouds Overcast 1500 ft
Heat Index 78 °F
Dew Point 62 °F
Humidity 62%
Rainfall 0.09 in
Snow Depth Not available.
7:13 AM 8:24 PM
Last Quarter, 43% visible
SPECI KGUY 251810Z AUTO 03006KT 10SM OVC015 21/15 A3019 RMK AO2 T02060150
Pressure 30.19 in
Visibility 10.0 miles
Clouds Overcast 1500 ft
Heat Index 78 °F
Dew Point 62 °F
Humidity 62%
Rainfall 0.09 in
Snow Depth Not available.
7:13 AM 8:24 PM
Last Quarter, 43% visible
SPECI KGUY 251810Z AUTO 03006KT 10SM OVC015 21/15 A3019 RMK AO2 T02060150
A tropical disturbance pushing toward the Bahamas, is expected to develop into a tropical depression or storm, and will likely target Florida and the Gulf Coast this weekend into next week.

Right now, the disturbance remains a broad area of low pressure pushing through the Dominican Republic and Haiti, headed toward the southeast Bahamas. Rainfall totals over 3 inches (with locally higher amounts) are expected in HispaƱiola, particularly over elevated terrain.

10-Day Weather Forecast

Almanac

Astronomy

Aug. 25, 2016 Rise Set
Actual Time
Civil Twilight
Nautical Twilight
Astronomical Twilight
Moon
Length of Visible Light
Length of Day
Tomorrow will be .
, % of the Moon is Illuminated

Today's Extremes

State Highs State Lows

Community

WunderPhotos

Upload Photos

1,934,890 photos uploaded!

WunderBlog® & News

Nearby

Air Quality

  Air Quality AQ Index Pollutant
Not available.

Snow Depth

Station Depth Elevation

Earthquake Activity

City Distance Mag. Time & Date
Minimum magnitude displayed is 2.5.

Coastal Water Temperatures

Place Temperature

Stations

Nearby Weather Stations

Station Location Temp. Windchill Dew Point Humidity Wind Precip. Elev Updated Type
                   

Watches & Warnings

There are currently no watches in effect.